createdAt,value
2023-02-22T00:01:20.158Z,10.82
2023-02-22T00:06:25.254Z,10.82
2023-02-22T00:11:29.570Z,10.73
2023-02-22T00:16:32.537Z,10.61
2023-02-22T00:21:34.622Z,10.46
2023-02-22T00:26:36.620Z,10.37
2023-02-22T00:31:39.521Z,10.37
2023-02-22T00:36:51.640Z,10.38
2023-02-22T00:41:53.747Z,10.26
2023-02-22T00:46:55.866Z,10.21
2023-02-22T00:51:57.996Z,10.11
2023-02-22T00:57:00.232Z,10.02
2023-02-22T01:02:02.974Z,9.94
2023-02-22T01:07:05.102Z,9.78
2023-02-22T01:12:08.311Z,9.67
2023-02-22T01:17:10.397Z,9.65
2023-02-22T01:22:12.533Z,9.60
2023-02-22T01:27:14.756Z,9.43
2023-02-22T01:32:16.801Z,9.37
2023-02-22T01:37:18.824Z,9.42
2023-02-22T01:42:21.582Z,9.36
2023-02-22T01:47:23.686Z,9.38
2023-02-22T01:52:25.564Z,9.27
2023-02-22T01:57:33.704Z,9.09
2023-02-22T02:02:37.327Z,8.95
2023-02-22T02:07:39.482Z,9.03
2023-02-22T02:12:48.364Z,8.98
2023-02-22T02:17:52.599Z,8.87
2023-02-22T02:23:11.375Z,8.79
2023-02-22T02:28:34.362Z,8.70
2023-02-22T02:34:00.743Z,8.65
2023-02-22T02:39:20.081Z,8.51
2023-02-22T02:44:32.082Z,8.35
2023-02-22T02:49:44.795Z,8.25
2023-02-22T02:54:47.361Z,8.19
2023-02-22T02:59:49.615Z,8.23
2023-02-22T03:05:30.066Z,8.16
2023-02-22T03:11:06.784Z,8.11
2023-02-22T03:16:11.815Z,7.97
2023-02-22T03:21:20.191Z,7.92
2023-02-22T03:26:26.096Z,7.86
2023-02-22T03:31:37.434Z,7.91
2023-02-22T03:36:48.799Z,7.91
2023-02-22T03:41:53.387Z,7.85
2023-02-22T03:47:03.041Z,7.81
2023-02-22T03:52:05.543Z,7.72
2023-02-22T03:57:16.168Z,7.73
2023-02-22T04:02:19.210Z,7.64
2023-02-22T04:07:21.243Z,7.65
2023-02-22T04:12:24.535Z,7.64
2023-02-22T04:17:32.256Z,7.50
2023-02-22T04:22:35.629Z,7.50
2023-02-22T04:27:37.947Z,7.47
2023-02-22T04:32:40.869Z,7.41
2023-02-22T04:37:43.032Z,7.43
2023-02-22T04:42:45.318Z,7.41
2023-02-22T04:47:47.385Z,7.38
2023-02-22T04:52:49.874Z,7.32
2023-02-22T04:57:52.017Z,7.33
2023-02-22T05:02:54.146Z,7.31
2023-02-22T05:07:56.273Z,7.26
2023-02-22T05:12:58.232Z,7.21
2023-02-22T05:18:00.215Z,7.21
2023-02-22T05:23:03.434Z,7.14
2023-02-22T05:28:10.444Z,7.05
2023-02-22T05:33:13.267Z,7.03
2023-02-22T05:38:15.650Z,6.98
2023-02-22T05:43:17.812Z,7.00
2023-02-22T05:48:22.222Z,6.97
2023-02-22T05:53:25.082Z,6.83
2023-02-22T05:58:27.013Z,6.84
2023-02-22T06:03:28.957Z,6.91
2023-02-22T06:08:30.941Z,6.93
2023-02-22T06:13:33.118Z,6.96
2023-02-22T06:18:35.399Z,6.96
2023-02-22T06:23:37.381Z,6.89
2023-02-22T06:28:39.223Z,6.88
2023-02-22T06:33:45.424Z,6.80
2023-02-22T06:38:47.360Z,6.85
2023-02-22T06:43:49.612Z,6.89
2023-02-22T06:48:52.319Z,6.88
2023-02-22T06:53:54.517Z,6.81
2023-02-22T06:58:56.438Z,6.80
2023-02-22T07:03:58.379Z,6.83
2023-02-22T07:09:01.227Z,6.80
2023-02-22T07:14:03.208Z,6.85
2023-02-22T07:19:05.297Z,6.81
2023-02-22T07:24:07.426Z,6.73
2023-02-22T07:29:11.465Z,6.72
2023-02-22T07:34:14.373Z,6.75
2023-02-22T07:39:16.325Z,6.80
2023-02-22T07:44:18.393Z,6.87
2023-02-22T07:49:20.457Z,6.93
2023-02-22T07:54:22.491Z,6.94
2023-02-22T07:59:24.398Z,6.96
2023-02-22T08:04:26.327Z,7.11
2023-02-22T08:09:28.293Z,7.16
2023-02-22T08:14:30.370Z,7.13
2023-02-22T08:19:32.385Z,7.32
2023-02-22T08:24:34.806Z,7.58
2023-02-22T08:29:36.945Z,7.57
2023-02-22T08:34:38.847Z,7.85
2023-02-22T08:39:42.123Z,7.93
2023-02-22T08:44:45.515Z,8.18
2023-02-22T08:49:49.052Z,8.39
2023-02-22T08:54:52.472Z,8.56
2023-02-22T08:59:55.799Z,8.82
2023-02-22T09:04:59.180Z,8.96
2023-02-22T09:10:04.669Z,9.30
2023-02-22T09:15:08.727Z,9.72
2023-02-22T09:20:13.548Z,9.97
2023-02-22T09:25:17.540Z,10.48
2023-02-22T09:30:23.992Z,10.78
2023-02-22T09:35:30.158Z,11.05
2023-02-22T09:40:36.967Z,11.59
2023-02-22T09:46:14.050Z,12.37
2023-02-22T09:51:18.382Z,12.66
2023-02-22T09:56:20.496Z,13.49
2023-02-22T10:01:49.620Z,13.70
2023-02-22T10:06:54.261Z,14.11
2023-02-22T10:12:02.760Z,14.25
2023-02-22T10:17:15.935Z,14.89
2023-02-22T10:22:27.089Z,15.20
2023-02-22T10:27:34.252Z,15.62
2023-02-22T10:32:48.101Z,15.78
2023-02-22T10:37:54.528Z,15.91
2023-02-22T10:42:56.529Z,15.84
2023-02-22T10:48:01.652Z,16.38
2023-02-22T10:53:04.073Z,17.00
2023-02-22T10:58:07.808Z,17.21
2023-02-22T11:03:18.297Z,17.02
2023-02-22T11:08:33.131Z,17.25
2023-02-22T11:13:39.502Z,17.10
2023-02-22T11:18:41.598Z,17.33
2023-02-22T11:23:46.581Z,17.19
2023-02-22T11:28:50.709Z,16.65
2023-02-22T11:34:03.553Z,16.08
2023-02-22T11:39:11.979Z,15.89
2023-02-22T11:44:31.664Z,15.76
2023-02-22T11:49:38.638Z,15.75
2023-02-22T11:54:46.564Z,15.77
2023-02-22T12:00:16.724Z,15.71
2023-02-22T12:05:37.392Z,15.88
2023-02-22T12:10:49.669Z,15.87
2023-02-22T12:16:00.171Z,15.75
2023-02-22T12:21:11.086Z,15.74
2023-02-22T12:26:15.166Z,15.84
2023-02-22T12:31:24.235Z,15.76
2023-02-22T12:36:36.098Z,15.72
2023-02-22T12:41:44.967Z,15.72
2023-02-22T12:46:53.551Z,15.60
2023-02-22T12:52:22.046Z,15.69
2023-02-22T12:58:05.920Z,15.64
2023-02-22T13:03:32.190Z,15.51
2023-02-22T13:09:05.588Z,15.69
2023-02-22T13:14:30.280Z,15.87
2023-02-22T13:20:06.301Z,15.91
2023-02-22T13:25:29.218Z,16.07
2023-02-22T13:30:41.982Z,16.24
2023-02-22T13:36:06.786Z,16.00
2023-02-22T13:41:15.570Z,15.99
2023-02-22T13:46:32.957Z,16.17
2023-02-22T13:51:47.458Z,16.24
2023-02-22T13:56:51.656Z,16.32
2023-02-22T14:01:55.723Z,16.01
2023-02-22T14:07:02.266Z,16.04
2023-02-22T14:12:04.438Z,16.21
2023-02-22T14:17:24.717Z,16.42
2023-02-22T14:22:29.219Z,16.30
2023-02-22T14:27:41.817Z,16.20
2023-02-22T14:32:44.080Z,16.06
2023-02-22T14:37:50.825Z,16.10
2023-02-22T14:43:15.170Z,16.20
2023-02-22T14:48:30.756Z,16.11
2023-02-22T14:53:41.140Z,16.07
2023-02-22T14:58:46.197Z,16.17
2023-02-22T15:03:56.012Z,16.32
2023-02-22T15:09:12.073Z,16.39
2023-02-22T15:14:26.830Z,16.36
2023-02-22T15:19:31.591Z,16.38
2023-02-22T15:24:35.120Z,16.62
2023-02-22T15:29:40.055Z,16.63
2023-02-22T15:34:43.190Z,16.53
2023-02-22T15:39:45.581Z,16.37
2023-02-22T15:44:50.878Z,16.38
2023-02-22T15:50:27.688Z,16.33
2023-02-22T15:55:40.886Z,16.37
2023-02-22T16:01:11.235Z,16.34
2023-02-22T16:06:35.756Z,16.34
2023-02-22T16:11:47.756Z,16.41
2023-02-22T16:16:52.764Z,16.38
2023-02-22T16:22:13.514Z,16.15
2023-02-22T16:27:15.981Z,16.21
2023-02-22T16:32:17.934Z,16.15
2023-02-22T16:37:24.787Z,16.20
2023-02-22T16:42:30.399Z,16.19
2023-02-22T16:47:33.624Z,16.18
2023-02-22T16:52:39.627Z,16.23
2023-02-22T16:57:42.442Z,16.05
2023-02-22T17:02:45.353Z,15.94
2023-02-22T17:07:47.423Z,15.80
2023-02-22T17:12:53.524Z,15.67
2023-02-22T17:17:56.432Z,15.53
2023-02-22T17:23:04.338Z,15.46
2023-02-22T17:28:07.082Z,15.35
2023-02-22T17:33:10.099Z,15.25
2023-02-22T17:38:12.352Z,15.17
2023-02-22T17:43:15.761Z,14.99
2023-02-22T17:48:19.011Z,14.83
2023-02-22T17:53:23.064Z,14.65
2023-02-22T17:58:29.648Z,14.63
2023-02-22T18:03:33.181Z,14.52
2023-02-22T18:08:35.826Z,14.40
2023-02-22T18:13:38.309Z,14.24
2023-02-22T18:18:40.411Z,14.12
2023-02-22T18:23:43.688Z,14.08
2023-02-22T18:28:46.248Z,13.97
2023-02-22T18:33:50.746Z,13.82
2023-02-22T18:38:53.865Z,13.74
2023-02-22T18:43:59.059Z,13.63
2023-02-22T18:49:01.107Z,13.55
2023-02-22T18:54:05.769Z,13.45
2023-02-22T18:59:12.348Z,13.34
2023-02-22T19:04:15.507Z,13.20
2023-02-22T19:09:18.314Z,13.11
2023-02-22T19:14:21.291Z,13.01
2023-02-22T19:19:26.506Z,12.87
2023-02-22T19:24:28.937Z,12.85
2023-02-22T19:29:31.375Z,12.76
2023-02-22T19:34:33.694Z,12.73
2023-02-22T19:39:38.546Z,12.64
2023-02-22T19:44:41.012Z,12.59
2023-02-22T19:49:43.038Z,12.49
2023-02-22T19:54:45.291Z,12.36
2023-02-22T19:59:47.624Z,12.24
2023-02-22T20:04:51.140Z,12.05
2023-02-22T20:09:53.918Z,12.18
2023-02-22T20:14:58.552Z,12.15
2023-02-22T20:20:00.301Z,12.01
2023-02-22T20:25:02.341Z,11.94
2023-02-22T20:30:05.177Z,11.79
2023-02-22T20:35:07.827Z,11.84
2023-02-22T20:40:11.069Z,11.74
2023-02-22T20:45:16.523Z,11.62
2023-02-22T20:50:18.468Z,11.40
2023-02-22T20:55:20.880Z,11.30
2023-02-22T21:00:22.897Z,11.28
2023-02-22T21:05:24.727Z,11.24
2023-02-22T21:10:26.618Z,11.07
2023-02-22T21:15:28.535Z,11.14
2023-02-22T21:20:31.172Z,11.14
2023-02-22T21:25:33.154Z,11.08
2023-02-22T21:30:35.297Z,10.96
2023-02-22T21:35:38.368Z,10.79
2023-02-22T21:40:46.961Z,10.70
2023-02-22T21:45:49.984Z,10.55
2023-02-22T21:50:51.954Z,10.67
2023-02-22T21:55:53.904Z,10.69
2023-02-22T22:00:58.867Z,10.54
2023-02-22T22:06:00.746Z,10.53
2023-02-22T22:11:03.954Z,10.54
2023-02-22T22:16:08.720Z,10.45
2023-02-22T22:21:16.417Z,10.36
2023-02-22T22:26:20.163Z,10.21
2023-02-22T22:31:24.118Z,10.25
2023-02-22T22:36:27.483Z,10.22
2023-02-22T22:41:29.642Z,10.19
2023-02-22T22:46:31.937Z,10.08
2023-02-22T22:51:34.208Z,10.02
2023-02-22T22:56:38.048Z,9.90
2023-02-22T23:01:44.614Z,9.82
2023-02-22T23:06:52.170Z,9.80
2023-02-22T23:11:56.532Z,9.74
2023-02-22T23:17:15.046Z,9.71
2023-02-22T23:22:16.929Z,9.60
2023-02-22T23:27:19.151Z,9.53
2023-02-22T23:32:21.415Z,9.59
2023-02-22T23:37:24.021Z,9.51
2023-02-22T23:42:25.973Z,9.42
2023-02-22T23:47:34.814Z,9.33
2023-02-22T23:52:37.496Z,9.39
2023-02-22T23:57:43.195Z,9.39
